sensor_id;sensor_type;location;lat;lon;timestamp;P1;durP1;ratioP1;P2;durP2;ratioP2
50858;SDS011;36826;47.514;19.056;2023-07-29T00:00:45;2.60;;;1.20;;
50858;SDS011;36826;47.514;19.056;2023-07-29T00:03:11;2.85;;;1.30;;
50858;SDS011;36826;47.514;19.056;2023-07-29T00:05:37;2.63;;;1.48;;
50858;SDS011;36826;47.514;19.056;2023-07-29T00:08:02;2.88;;;1.60;;
50858;SDS011;36826;47.514;19.056;2023-07-29T00:10:28;3.28;;;1.63;;
50858;SDS011;36826;47.514;19.056;2023-07-29T00:12:56;2.92;;;1.60;;
50858;SDS011;36826;47.514;19.056;2023-07-29T00:15:22;2.35;;;1.40;;
50858;SDS011;36826;47.514;19.056;2023-07-29T00:17:48;3.67;;;1.50;;
50858;SDS011;36826;47.514;19.056;2023-07-29T00:20:15;4.40;;;1.48;;
50858;SDS011;36826;47.514;19.056;2023-07-29T00:22:41;3.35;;;1.23;;
50858;SDS011;36826;47.514;19.056;2023-07-29T00:25:07;3.80;;;1.70;;
50858;SDS011;36826;47.514;19.056;2023-07-29T00:27:35;3.53;;;1.52;;
50858;SDS011;36826;47.514;19.056;2023-07-29T00:30:01;3.15;;;1.55;;
50858;SDS011;36826;47.514;19.056;2023-07-29T00:32:29;2.00;;;1.20;;
50858;SDS011;36826;47.514;19.056;2023-07-29T00:34:56;2.05;;;1.25;;
50858;SDS011;36826;47.514;19.056;2023-07-29T00:37:21;2.78;;;1.30;;
50858;SDS011;36826;47.514;19.056;2023-07-29T00:39:47;3.10;;;1.70;;
50858;SDS011;36826;47.514;19.056;2023-07-29T00:42:12;2.38;;;1.23;;
50858;SDS011;36826;47.514;19.056;2023-07-29T00:44:38;2.20;;;1.40;;
50858;SDS011;36826;47.514;19.056;2023-07-29T00:47:04;2.40;;;1.67;;
50858;SDS011;36826;47.514;19.056;2023-07-29T00:49:31;2.70;;;1.50;;
50858;SDS011;36826;47.514;19.056;2023-07-29T00:51:57;3.47;;;1.80;;
50858;SDS011;36826;47.514;19.056;2023-07-29T00:54:23;4.15;;;1.60;;
50858;SDS011;36826;47.514;19.056;2023-07-29T00:56:48;3.15;;;1.40;;
50858;SDS011;36826;47.514;19.056;2023-07-29T00:59:14;5.82;;;1.63;;
50858;SDS011;36826;47.514;19.056;2023-07-29T01:01:40;5.40;;;1.42;;
50858;SDS011;36826;47.514;19.056;2023-07-29T01:04:06;5.00;;;1.35;;
50858;SDS011;36826;47.514;19.056;2023-07-29T01:17:33;4.05;;;1.67;;
50858;SDS011;36826;47.514;19.056;2023-07-29T01:20:02;3.17;;;1.60;;
50858;SDS011;36826;47.514;19.056;2023-07-29T01:22:36;2.17;;;1.38;;
50858;SDS011;36826;47.514;19.056;2023-07-29T01:25:03;3.33;;;1.85;;
50858;SDS011;36826;47.514;19.056;2023-07-29T01:27:29;2.80;;;1.60;;
50858;SDS011;36826;47.514;19.056;2023-07-29T01:29:55;4.75;;;1.80;;
50858;SDS011;36826;47.514;19.056;2023-07-29T01:34:59;4.03;;;1.85;;
50858;SDS011;36826;47.514;19.056;2023-07-29T01:37:28;3.72;;;1.52;;
50858;SDS011;36826;47.514;19.056;2023-07-29T01:39:57;2.60;;;1.50;;
50858;SDS011;36826;47.514;19.056;2023-07-29T01:42:25;4.88;;;1.75;;
50858;SDS011;36826;47.514;19.056;2023-07-29T01:44:51;4.22;;;1.40;;
50858;SDS011;36826;47.514;19.056;2023-07-29T01:47:17;3.67;;;1.60;;
50858;SDS011;36826;47.514;19.056;2023-07-29T01:49:42;3.78;;;1.50;;
50858;SDS011;36826;47.514;19.056;2023-07-29T01:52:08;3.08;;;1.33;;
50858;SDS011;36826;47.514;19.056;2023-07-29T01:54:33;4.35;;;1.52;;
50858;SDS011;36826;47.514;19.056;2023-07-29T01:56:59;3.25;;;1.60;;
50858;SDS011;36826;47.514;19.056;2023-07-29T01:59:24;4.13;;;1.60;;
50858;SDS011;36826;47.514;19.056;2023-07-29T02:01:50;3.85;;;1.50;;
50858;SDS011;36826;47.514;19.056;2023-07-29T02:04:15;4.90;;;1.60;;
50858;SDS011;36826;47.514;19.056;2023-07-29T02:06:42;4.18;;;1.67;;
50858;SDS011;36826;47.514;19.056;2023-07-29T02:09:08;3.03;;;1.90;;
50858;SDS011;36826;47.514;19.056;2023-07-29T02:11:33;3.25;;;1.42;;
50858;SDS011;36826;47.514;19.056;2023-07-29T02:13:59;2.17;;;1.50;;
50858;SDS011;36826;47.514;19.056;2023-07-29T02:16:24;2.55;;;1.45;;
50858;SDS011;36826;47.514;19.056;2023-07-29T02:18:50;2.72;;;1.45;;
50858;SDS011;36826;47.514;19.056;2023-07-29T02:21:16;3.58;;;1.55;;
50858;SDS011;36826;47.514;19.056;2023-07-29T02:23:42;3.10;;;1.35;;
50858;SDS011;36826;47.514;19.056;2023-07-29T02:26:07;2.67;;;1.50;;
50858;SDS011;36826;47.514;19.056;2023-07-29T02:28:33;1.73;;;1.38;;
50858;SDS011;36826;47.514;19.056;2023-07-29T02:31:19;4.15;;;1.63;;
50858;SDS011;36826;47.514;19.056;2023-07-29T02:36:12;4.60;;;1.65;;
50858;SDS011;36826;47.514;19.056;2023-07-29T02:38:39;3.95;;;1.50;;
50858;SDS011;36826;47.514;19.056;2023-07-29T02:41:05;4.22;;;1.88;;
50858;SDS011;36826;47.514;19.056;2023-07-29T02:43:31;4.22;;;1.65;;
50858;SDS011;36826;47.514;19.056;2023-07-29T02:45:56;3.20;;;1.60;;
50858;SDS011;36826;47.514;19.056;2023-07-29T02:48:22;4.93;;;1.90;;
50858;SDS011;36826;47.514;19.056;2023-07-29T02:50:47;3.55;;;1.60;;
50858;SDS011;36826;47.514;19.056;2023-07-29T02:53:13;3.35;;;1.60;;
50858;SDS011;36826;47.514;19.056;2023-07-29T02:55:42;3.30;;;1.70;;
50858;SDS011;36826;47.514;19.056;2023-07-29T02:58:07;3.92;;;1.92;;
50858;SDS011;36826;47.514;19.056;2023-07-29T03:00:33;5.72;;;1.88;;
50858;SDS011;36826;47.514;19.056;2023-07-29T03:02:58;3.63;;;1.70;;
50858;SDS011;36826;47.514;19.056;2023-07-29T03:05:26;18.77;;;7.10;;
50858;SDS011;36826;47.514;19.056;2023-07-29T03:07:52;5.30;;;1.92;;
50858;SDS011;36826;47.514;19.056;2023-07-29T03:10:18;3.85;;;1.65;;
50858;SDS011;36826;47.514;19.056;2023-07-29T03:12:43;3.10;;;1.77;;
50858;SDS011;36826;47.514;19.056;2023-07-29T03:15:09;3.30;;;1.92;;
50858;SDS011;36826;47.514;19.056;2023-07-29T03:17:34;5.53;;;1.83;;
50858;SDS011;36826;47.514;19.056;2023-07-29T03:20:00;7.10;;;2.35;;
50858;SDS011;36826;47.514;19.056;2023-07-29T03:22:26;3.75;;;1.80;;
50858;SDS011;36826;47.514;19.056;2023-07-29T03:24:51;3.70;;;2.10;;
50858;SDS011;36826;47.514;19.056;2023-07-29T03:27:17;3.08;;;1.98;;
50858;SDS011;36826;47.514;19.056;2023-07-29T03:29:42;3.28;;;1.85;;
50858;SDS011;36826;47.514;19.056;2023-07-29T03:32:08;2.97;;;1.60;;
50858;SDS011;36826;47.514;19.056;2023-07-29T03:34:34;2.30;;;1.63;;
50858;SDS011;36826;47.514;19.056;2023-07-29T03:37:00;4.57;;;1.75;;
50858;SDS011;36826;47.514;19.056;2023-07-29T03:39:26;4.80;;;1.88;;
50858;SDS011;36826;47.514;19.056;2023-07-29T03:41:52;3.80;;;1.83;;
50858;SDS011;36826;47.514;19.056;2023-07-29T03:44:17;5.38;;;1.60;;
50858;SDS011;36826;47.514;19.056;2023-07-29T03:46:43;3.75;;;1.60;;
50858;SDS011;36826;47.514;19.056;2023-07-29T03:49:09;3.08;;;1.70;;
50858;SDS011;36826;47.514;19.056;2023-07-29T03:51:35;3.13;;;1.70;;
50858;SDS011;36826;47.514;19.056;2023-07-29T03:54:01;3.17;;;1.30;;
50858;SDS011;36826;47.514;19.056;2023-07-29T03:56:26;2.97;;;1.50;;
50858;SDS011;36826;47.514;19.056;2023-07-29T03:58:52;3.92;;;1.90;;
50858;SDS011;36826;47.514;19.056;2023-07-29T04:01:18;2.33;;;1.50;;
50858;SDS011;36826;47.514;19.056;2023-07-29T04:03:44;3.65;;;1.30;;
50858;SDS011;36826;47.514;19.056;2023-07-29T04:06:11;2.25;;;1.60;;
50858;SDS011;36826;47.514;19.056;2023-07-29T04:08:37;3.85;;;1.60;;
50858;SDS011;36826;47.514;19.056;2023-07-29T04:11:02;3.55;;;1.50;;
50858;SDS011;36826;47.514;19.056;2023-07-29T04:13:28;4.70;;;1.65;;
50858;SDS011;36826;47.514;19.056;2023-07-29T04:15:54;2.30;;;1.27;;
50858;SDS011;36826;47.514;19.056;2023-07-29T04:18:19;2.58;;;1.40;;
50858;SDS011;36826;47.514;19.056;2023-07-29T04:20:44;3.97;;;1.50;;
50858;SDS011;36826;47.514;19.056;2023-07-29T04:23:10;3.17;;;1.58;;
50858;SDS011;36826;47.514;19.056;2023-07-29T04:25:35;3.17;;;1.30;;
50858;SDS011;36826;47.514;19.056;2023-07-29T04:28:01;3.58;;;1.50;;
50858;SDS011;36826;47.514;19.056;2023-07-29T04:30:28;2.80;;;1.67;;
50858;SDS011;36826;47.514;19.056;2023-07-29T04:32:54;2.45;;;1.52;;
50858;SDS011;36826;47.514;19.056;2023-07-29T04:35:20;3.60;;;1.60;;
50858;SDS011;36826;47.514;19.056;2023-07-29T04:37:45;4.72;;;1.60;;
50858;SDS011;36826;47.514;19.056;2023-07-29T04:40:13;2.90;;;1.60;;
50858;SDS011;36826;47.514;19.056;2023-07-29T04:42:39;2.10;;;1.20;;
50858;SDS011;36826;47.514;19.056;2023-07-29T04:45:04;2.20;;;1.13;;
50858;SDS011;36826;47.514;19.056;2023-07-29T04:47:30;1.60;;;1.10;;
50858;SDS011;36826;47.514;19.056;2023-07-29T04:49:56;2.50;;;1.30;;
50858;SDS011;36826;47.514;19.056;2023-07-29T04:52:21;2.40;;;1.20;;
50858;SDS011;36826;47.514;19.056;2023-07-29T04:54:47;3.20;;;1.45;;
50858;SDS011;36826;47.514;19.056;2023-07-29T04:57:12;1.83;;;1.15;;
50858;SDS011;36826;47.514;19.056;2023-07-29T04:59:38;2.92;;;1.65;;
50858;SDS011;36826;47.514;19.056;2023-07-29T05:02:03;4.35;;;1.90;;
50858;SDS011;36826;47.514;19.056;2023-07-29T05:04:29;2.28;;;1.45;;
50858;SDS011;36826;47.514;19.056;2023-07-29T05:06:54;3.85;;;2.10;;
50858;SDS011;36826;47.514;19.056;2023-07-29T05:09:20;4.63;;;1.60;;
50858;SDS011;36826;47.514;19.056;2023-07-29T05:11:46;4.43;;;1.42;;
50858;SDS011;36826;47.514;19.056;2023-07-29T05:14:15;3.63;;;1.60;;
50858;SDS011;36826;47.514;19.056;2023-07-29T05:16:42;2.75;;;1.90;;
50858;SDS011;36826;47.514;19.056;2023-07-29T05:19:07;4.28;;;2.08;;
50858;SDS011;36826;47.514;19.056;2023-07-29T05:21:33;2.70;;;1.95;;
50858;SDS011;36826;47.514;19.056;2023-07-29T05:23:59;3.07;;;1.93;;
50858;SDS011;36826;47.514;19.056;2023-07-29T05:26:24;2.30;;;1.90;;
50858;SDS011;36826;47.514;19.056;2023-07-29T05:28:50;2.97;;;1.90;;
50858;SDS011;36826;47.514;19.056;2023-07-29T05:31:15;3.40;;;2.13;;
50858;SDS011;36826;47.514;19.056;2023-07-29T05:33:41;3.90;;;2.10;;
50858;SDS011;36826;47.514;19.056;2023-07-29T05:36:06;2.85;;;2.17;;
50858;SDS011;36826;47.514;19.056;2023-07-29T05:38:32;3.00;;;2.10;;
50858;SDS011;36826;47.514;19.056;2023-07-29T05:40:57;4.45;;;1.90;;
50858;SDS011;36826;47.514;19.056;2023-07-29T05:43:26;4.95;;;2.25;;
50858;SDS011;36826;47.514;19.056;2023-07-29T05:45:52;2.90;;;2.30;;
50858;SDS011;36826;47.514;19.056;2023-07-29T05:48:19;3.63;;;2.10;;
50858;SDS011;36826;47.514;19.056;2023-07-29T05:50:45;3.33;;;2.10;;
50858;SDS011;36826;47.514;19.056;2023-07-29T05:53:10;3.95;;;2.20;;
50858;SDS011;36826;47.514;19.056;2023-07-29T05:55:36;2.78;;;1.80;;
50858;SDS011;36826;47.514;19.056;2023-07-29T05:58:01;4.13;;;2.10;;
50858;SDS011;36826;47.514;19.056;2023-07-29T06:00:27;2.45;;;1.70;;
50858;SDS011;36826;47.514;19.056;2023-07-29T06:02:52;3.90;;;1.77;;
50858;SDS011;36826;47.514;19.056;2023-07-29T06:05:18;2.85;;;1.90;;
50858;SDS011;36826;47.514;19.056;2023-07-29T06:07:43;2.78;;;1.70;;
50858;SDS011;36826;47.514;19.056;2023-07-29T06:10:10;3.33;;;1.77;;
50858;SDS011;36826;47.514;19.056;2023-07-29T06:12:38;1.60;;;1.30;;
50858;SDS011;36826;47.514;19.056;2023-07-29T06:15:04;2.17;;;1.48;;
50858;SDS011;36826;47.514;19.056;2023-07-29T06:17:30;1.83;;;1.50;;
50858;SDS011;36826;47.514;19.056;2023-07-29T06:19:55;2.55;;;1.50;;
50858;SDS011;36826;47.514;19.056;2023-07-29T06:22:21;1.65;;;1.13;;
50858;SDS011;36826;47.514;19.056;2023-07-29T06:24:46;2.30;;;1.40;;
50858;SDS011;36826;47.514;19.056;2023-07-29T06:27:12;3.72;;;1.20;;
50858;SDS011;36826;47.514;19.056;2023-07-29T06:29:38;1.60;;;1.10;;
50858;SDS011;36826;47.514;19.056;2023-07-29T06:32:03;2.40;;;1.10;;
50858;SDS011;36826;47.514;19.056;2023-07-29T06:34:29;2.95;;;1.17;;
50858;SDS011;36826;47.514;19.056;2023-07-29T06:36:55;1.13;;;0.77;;
50858;SDS011;36826;47.514;19.056;2023-07-29T06:39:20;2.23;;;1.03;;
50858;SDS011;36826;47.514;19.056;2023-07-29T06:41:46;2.20;;;1.10;;
50858;SDS011;36826;47.514;19.056;2023-07-29T06:44:13;1.83;;;1.50;;
50858;SDS011;36826;47.514;19.056;2023-07-29T06:46:39;2.30;;;1.23;;
50858;SDS011;36826;47.514;19.056;2023-07-29T06:51:30;1.30;;;1.20;;
50858;SDS011;36826;47.514;19.056;2023-07-29T06:53:59;1.48;;;1.20;;
50858;SDS011;36826;47.514;19.056;2023-07-29T06:56:25;1.35;;;1.20;;
50858;SDS011;36826;47.514;19.056;2023-07-29T06:58:51;1.30;;;1.20;;
50858;SDS011;36826;47.514;19.056;2023-07-29T07:01:16;2.70;;;1.50;;
50858;SDS011;36826;47.514;19.056;2023-07-29T07:03:42;1.25;;;1.10;;
50858;SDS011;36826;47.514;19.056;2023-07-29T07:06:08;1.10;;;1.00;;
50858;SDS011;36826;47.514;19.056;2023-07-29T07:10:58;2.60;;;0.97;;
50858;SDS011;36826;47.514;19.056;2023-07-29T07:18:15;1.38;;;1.25;;
50858;SDS011;36826;47.514;19.056;2023-07-29T07:20:41;2.05;;;1.25;;
50858;SDS011;36826;47.514;19.056;2023-07-29T07:23:06;1.77;;;1.20;;
50858;SDS011;36826;47.514;19.056;2023-07-29T07:25:36;3.00;;;1.52;;
50858;SDS011;36826;47.514;19.056;2023-07-29T07:30:28;3.15;;;1.65;;
50858;SDS011;36826;47.514;19.056;2023-07-29T07:35:19;3.25;;;1.30;;
50858;SDS011;36826;47.514;19.056;2023-07-29T07:40:10;1.57;;;1.13;;
50858;SDS011;36826;47.514;19.056;2023-07-29T07:42:36;1.95;;;1.13;;
50858;SDS011;36826;47.514;19.056;2023-07-29T07:45:01;2.30;;;1.57;;
50858;SDS011;36826;47.514;19.056;2023-07-29T07:47:27;2.22;;;1.60;;
50858;SDS011;36826;47.514;19.056;2023-07-29T07:49:53;4.27;;;1.27;;
50858;SDS011;36826;47.514;19.056;2023-07-29T07:52:18;2.80;;;1.20;;
50858;SDS011;36826;47.514;19.056;2023-07-29T07:54:44;2.20;;;1.40;;
50858;SDS011;36826;47.514;19.056;2023-07-29T07:57:10;2.40;;;1.20;;
50858;SDS011;36826;47.514;19.056;2023-07-29T07:59:37;2.40;;;1.30;;
50858;SDS011;36826;47.514;19.056;2023-07-29T08:02:02;1.77;;;1.20;;
50858;SDS011;36826;47.514;19.056;2023-07-29T08:04:28;2.92;;;1.00;;
50858;SDS011;36826;47.514;19.056;2023-07-29T08:06:54;1.88;;;1.42;;
50858;SDS011;36826;47.514;19.056;2023-07-29T08:11:45;2.83;;;1.03;;
50858;SDS011;36826;47.514;19.056;2023-07-29T08:14:10;1.75;;;1.30;;
50858;SDS011;36826;47.514;19.056;2023-07-29T08:16:36;1.48;;;1.38;;
50858;SDS011;36826;47.514;19.056;2023-07-29T08:19:01;2.35;;;1.45;;
50858;SDS011;36826;47.514;19.056;2023-07-29T08:21:27;1.50;;;1.40;;
50858;SDS011;36826;47.514;19.056;2023-07-29T08:23:53;2.83;;;1.50;;
50858;SDS011;36826;47.514;19.056;2023-07-29T08:26:22;1.60;;;1.50;;
50858;SDS011;36826;47.514;19.056;2023-07-29T08:28:48;1.70;;;1.60;;
50858;SDS011;36826;47.514;19.056;2023-07-29T08:31:13;1.30;;;1.20;;
50858;SDS011;36826;47.514;19.056;2023-07-29T08:33:39;2.13;;;1.50;;
50858;SDS011;36826;47.514;19.056;2023-07-29T08:36:04;1.85;;;1.75;;
50858;SDS011;36826;47.514;19.056;2023-07-29T08:38:30;1.60;;;1.50;;
50858;SDS011;36826;47.514;19.056;2023-07-29T08:41:14;1.55;;;1.45;;
50858;SDS011;36826;47.514;19.056;2023-07-29T08:43:48;1.98;;;1.40;;
50858;SDS011;36826;47.514;19.056;2023-07-29T08:46:18;2.38;;;1.52;;
50858;SDS011;36826;47.514;19.056;2023-07-29T08:48:44;1.42;;;1.33;;
50858;SDS011;36826;47.514;19.056;2023-07-29T08:51:11;1.30;;;1.17;;
50858;SDS011;36826;47.514;19.056;2023-07-29T08:53:38;1.33;;;1.23;;
50858;SDS011;36826;47.514;19.056;2023-07-29T08:56:05;2.67;;;1.10;;
50858;SDS011;36826;47.514;19.056;2023-07-29T08:58:32;1.63;;;1.08;;
50858;SDS011;36826;47.514;19.056;2023-07-29T09:00:58;2.08;;;1.00;;
50858;SDS011;36826;47.514;19.056;2023-07-29T09:03:24;1.20;;;0.93;;
50858;SDS011;36826;47.514;19.056;2023-07-29T09:05:50;1.25;;;1.00;;
50858;SDS011;36826;47.514;19.056;2023-07-29T09:08:16;1.20;;;1.10;;
50858;SDS011;36826;47.514;19.056;2023-07-29T09:10:42;1.95;;;1.00;;
50858;SDS011;36826;47.514;19.056;2023-07-29T09:13:08;1.15;;;0.90;;
50858;SDS011;36826;47.514;19.056;2023-07-29T09:15:35;1.65;;;0.80;;
50858;SDS011;36826;47.514;19.056;2023-07-29T09:18:11;0.98;;;0.65;;
50858;SDS011;36826;47.514;19.056;2023-07-29T09:20:40;1.70;;;0.60;;
50858;SDS011;36826;47.514;19.056;2023-07-29T09:23:07;1.15;;;0.77;;
50858;SDS011;36826;47.514;19.056;2023-07-29T09:25:35;1.77;;;0.50;;
50858;SDS011;36826;47.514;19.056;2023-07-29T09:28:01;0.80;;;0.65;;
50858;SDS011;36826;47.514;19.056;2023-07-29T09:30:32;1.45;;;0.60;;
50858;SDS011;36826;47.514;19.056;2023-07-29T09:37:50;0.90;;;0.60;;
50858;SDS011;36826;47.514;19.056;2023-07-29T09:42:50;0.75;;;0.60;;
50858;SDS011;36826;47.514;19.056;2023-07-29T09:47:48;1.80;;;0.47;;
50858;SDS011;36826;47.514;19.056;2023-07-29T09:50:17;0.93;;;0.65;;
50858;SDS011;36826;47.514;19.056;2023-07-29T09:52:43;1.05;;;0.63;;
50858;SDS011;36826;47.514;19.056;2023-07-29T09:57:36;1.20;;;0.52;;
50858;SDS011;36826;47.514;19.056;2023-07-29T10:00:04;0.65;;;0.50;;
50858;SDS011;36826;47.514;19.056;2023-07-29T10:02:35;1.90;;;0.50;;
50858;SDS011;36826;47.514;19.056;2023-07-29T10:05:09;0.80;;;0.57;;
50858;SDS011;36826;47.514;19.056;2023-07-29T10:07:36;0.95;;;0.50;;
50858;SDS011;36826;47.514;19.056;2023-07-29T10:10:03;0.80;;;0.52;;
50858;SDS011;36826;47.514;19.056;2023-07-29T10:12:34;0.80;;;0.50;;
50858;SDS011;36826;47.514;19.056;2023-07-29T10:15:01;0.88;;;0.52;;
50858;SDS011;36826;47.514;19.056;2023-07-29T10:17:29;1.00;;;0.40;;
50858;SDS011;36826;47.514;19.056;2023-07-29T10:19:56;1.20;;;0.47;;
50858;SDS011;36826;47.514;19.056;2023-07-29T10:22:25;1.85;;;0.50;;
50858;SDS011;36826;47.514;19.056;2023-07-29T10:24:54;0.93;;;0.70;;
50858;SDS011;36826;47.514;19.056;2023-07-29T10:27:24;0.60;;;0.40;;
50858;SDS011;36826;47.514;19.056;2023-07-29T10:29:52;1.05;;;0.60;;
50858;SDS011;36826;47.514;19.056;2023-07-29T10:32:25;1.08;;;0.40;;
50858;SDS011;36826;47.514;19.056;2023-07-29T10:34:53;0.82;;;0.43;;
50858;SDS011;36826;47.514;19.056;2023-07-29T10:37:19;1.17;;;0.40;;
50858;SDS011;36826;47.514;19.056;2023-07-29T10:42:21;0.70;;;0.40;;
50858;SDS011;36826;47.514;19.056;2023-07-29T10:44:51;1.08;;;0.63;;
50858;SDS011;36826;47.514;19.056;2023-07-29T10:49:44;1.90;;;0.50;;
50858;SDS011;36826;47.514;19.056;2023-07-29T10:52:14;0.80;;;0.40;;
50858;SDS011;36826;47.514;19.056;2023-07-29T10:54:44;1.23;;;0.40;;
50858;SDS011;36826;47.514;19.056;2023-07-29T10:57:17;1.20;;;0.40;;
50858;SDS011;36826;47.514;19.056;2023-07-29T11:00:06;0.60;;;0.30;;
50858;SDS011;36826;47.514;19.056;2023-07-29T11:02:36;1.23;;;0.60;;
50858;SDS011;36826;47.514;19.056;2023-07-29T11:05:06;0.73;;;0.32;;
50858;SDS011;36826;47.514;19.056;2023-07-29T11:07:42;1.17;;;0.40;;
50858;SDS011;36826;47.514;19.056;2023-07-29T11:10:09;0.60;;;0.25;;
50858;SDS011;36826;47.514;19.056;2023-07-29T11:17:35;0.80;;;0.30;;
50858;SDS011;36826;47.514;19.056;2023-07-29T11:20:04;1.08;;;0.40;;
50858;SDS011;36826;47.514;19.056;2023-07-29T11:22:30;0.73;;;0.35;;
50858;SDS011;36826;47.514;19.056;2023-07-29T11:24:56;0.60;;;0.30;;
50858;SDS011;36826;47.514;19.056;2023-07-29T11:27:22;1.80;;;0.40;;
50858;SDS011;36826;47.514;19.056;2023-07-29T11:29:48;0.90;;;0.40;;
50858;SDS011;36826;47.514;19.056;2023-07-29T11:32:14;2.65;;;0.50;;
50858;SDS011;36826;47.514;19.056;2023-07-29T11:34:42;2.47;;;0.47;;
50858;SDS011;36826;47.514;19.056;2023-07-29T11:39:40;0.82;;;0.35;;
50858;SDS011;36826;47.514;19.056;2023-07-29T11:42:06;0.85;;;0.32;;
50858;SDS011;36826;47.514;19.056;2023-07-29T11:44:33;1.10;;;0.50;;
50858;SDS011;36826;47.514;19.056;2023-07-29T11:46:59;1.40;;;0.30;;
50858;SDS011;36826;47.514;19.056;2023-07-29T11:49:25;0.90;;;0.57;;
50858;SDS011;36826;47.514;19.056;2023-07-29T11:51:50;0.70;;;0.40;;
50858;SDS011;36826;47.514;19.056;2023-07-29T11:54:16;1.05;;;0.50;;
50858;SDS011;36826;47.514;19.056;2023-07-29T11:56:46;1.75;;;0.50;;
50858;SDS011;36826;47.514;19.056;2023-07-29T11:59:14;0.80;;;0.50;;
50858;SDS011;36826;47.514;19.056;2023-07-29T12:01:40;1.05;;;0.52;;
50858;SDS011;36826;47.514;19.056;2023-07-29T12:04:05;1.23;;;0.77;;
50858;SDS011;36826;47.514;19.056;2023-07-29T12:06:31;1.95;;;0.65;;
50858;SDS011;36826;47.514;19.056;2023-07-29T12:08:58;3.00;;;0.80;;
50858;SDS011;36826;47.514;19.056;2023-07-29T12:11:23;0.93;;;0.70;;
50858;SDS011;36826;47.514;19.056;2023-07-29T12:13:49;1.13;;;0.50;;
50858;SDS011;36826;47.514;19.056;2023-07-29T12:16:18;1.20;;;0.70;;
50858;SDS011;36826;47.514;19.056;2023-07-29T12:18:44;2.28;;;0.70;;
50858;SDS011;36826;47.514;19.056;2023-07-29T12:21:09;1.40;;;0.80;;
50858;SDS011;36826;47.514;19.056;2023-07-29T12:23:35;1.65;;;0.60;;
50858;SDS011;36826;47.514;19.056;2023-07-29T12:26:02;4.32;;;0.90;;
50858;SDS011;36826;47.514;19.056;2023-07-29T12:28:27;1.20;;;0.65;;
50858;SDS011;36826;47.514;19.056;2023-07-29T12:33:34;1.33;;;0.80;;
50858;SDS011;36826;47.514;19.056;2023-07-29T12:36:01;1.70;;;0.50;;
50858;SDS011;36826;47.514;19.056;2023-07-29T12:38:28;0.90;;;0.50;;
50858;SDS011;36826;47.514;19.056;2023-07-29T12:40:54;1.10;;;0.50;;
50858;SDS011;36826;47.514;19.056;2023-07-29T12:43:20;1.00;;;0.50;;
50858;SDS011;36826;47.514;19.056;2023-07-29T12:45:45;1.30;;;0.40;;
50858;SDS011;36826;47.514;19.056;2023-07-29T12:48:11;1.23;;;0.50;;
50858;SDS011;36826;47.514;19.056;2023-07-29T12:50:40;2.08;;;0.60;;
50858;SDS011;36826;47.514;19.056;2023-07-29T12:53:07;1.38;;;0.50;;
50858;SDS011;36826;47.514;19.056;2023-07-29T12:55:35;1.55;;;0.40;;
50858;SDS011;36826;47.514;19.056;2023-07-29T12:58:00;1.20;;;0.70;;
50858;SDS011;36826;47.514;19.056;2023-07-29T13:00:27;1.08;;;0.60;;
50858;SDS011;36826;47.514;19.056;2023-07-29T13:02:53;2.92;;;0.60;;
50858;SDS011;36826;47.514;19.056;2023-07-29T13:05:20;1.50;;;0.70;;
50858;SDS011;36826;47.514;19.056;2023-07-29T13:07:47;1.10;;;0.40;;
50858;SDS011;36826;47.514;19.056;2023-07-29T13:10:13;1.25;;;0.50;;
50858;SDS011;36826;47.514;19.056;2023-07-29T13:12:39;1.00;;;0.60;;
50858;SDS011;36826;47.514;19.056;2023-07-29T13:15:06;1.42;;;0.50;;
50858;SDS011;36826;47.514;19.056;2023-07-29T13:17:32;1.00;;;0.50;;
50858;SDS011;36826;47.514;19.056;2023-07-29T13:19:59;0.90;;;0.60;;
50858;SDS011;36826;47.514;19.056;2023-07-29T13:22:24;1.80;;;0.68;;
50858;SDS011;36826;47.514;19.056;2023-07-29T13:24:50;1.83;;;0.60;;
50858;SDS011;36826;47.514;19.056;2023-07-29T13:27:15;1.55;;;0.50;;
50858;SDS011;36826;47.514;19.056;2023-07-29T13:29:41;1.05;;;0.50;;
50858;SDS011;36826;47.514;19.056;2023-07-29T13:32:08;2.00;;;0.52;;
50858;SDS011;36826;47.514;19.056;2023-07-29T13:34:34;1.20;;;0.80;;
50858;SDS011;36826;47.514;19.056;2023-07-29T13:37:00;1.30;;;0.80;;
50858;SDS011;36826;47.514;19.056;2023-07-29T13:39:25;2.33;;;0.82;;
50858;SDS011;36826;47.514;19.056;2023-07-29T13:41:52;1.35;;;0.70;;
50858;SDS011;36826;47.514;19.056;2023-07-29T13:44:18;1.50;;;0.60;;
50858;SDS011;36826;47.514;19.056;2023-07-29T13:46:45;1.08;;;0.47;;
50858;SDS011;36826;47.514;19.056;2023-07-29T13:49:11;2.10;;;0.60;;
50858;SDS011;36826;47.514;19.056;2023-07-29T13:51:37;1.55;;;0.70;;
50858;SDS011;36826;47.514;19.056;2023-07-29T13:54:03;1.65;;;0.93;;
50858;SDS011;36826;47.514;19.056;2023-07-29T13:56:29;1.70;;;1.07;;
50858;SDS011;36826;47.514;19.056;2023-07-29T13:58:55;2.22;;;0.88;;
50858;SDS011;36826;47.514;19.056;2023-07-29T14:01:21;2.42;;;1.40;;
50858;SDS011;36826;47.514;19.056;2023-07-29T14:03:46;1.42;;;0.73;;
50858;SDS011;36826;47.514;19.056;2023-07-29T14:06:13;1.17;;;0.55;;
50858;SDS011;36826;47.514;19.056;2023-07-29T14:08:39;1.67;;;0.67;;
50858;SDS011;36826;47.514;19.056;2023-07-29T14:11:07;1.30;;;0.68;;
50858;SDS011;36826;47.514;19.056;2023-07-29T14:13:33;1.40;;;0.82;;
50858;SDS011;36826;47.514;19.056;2023-07-29T14:16:02;1.23;;;0.50;;
50858;SDS011;36826;47.514;19.056;2023-07-29T14:18:28;1.00;;;0.60;;
50858;SDS011;36826;47.514;19.056;2023-07-29T14:20:55;1.85;;;0.70;;
50858;SDS011;36826;47.514;19.056;2023-07-29T14:23:20;1.30;;;0.60;;
50858;SDS011;36826;47.514;19.056;2023-07-29T14:25:46;1.30;;;0.50;;
50858;SDS011;36826;47.514;19.056;2023-07-29T14:28:12;1.27;;;0.47;;
50858;SDS011;36826;47.514;19.056;2023-07-29T14:30:39;1.58;;;0.50;;
50858;SDS011;36826;47.514;19.056;2023-07-29T14:33:06;0.90;;;0.50;;
50858;SDS011;36826;47.514;19.056;2023-07-29T14:35:32;1.00;;;0.50;;
50858;SDS011;36826;47.514;19.056;2023-07-29T14:37:58;2.20;;;0.80;;
50858;SDS011;36826;47.514;19.056;2023-07-29T14:40:23;1.88;;;0.80;;
50858;SDS011;36826;47.514;19.056;2023-07-29T14:42:49;1.13;;;0.50;;
50858;SDS011;36826;47.514;19.056;2023-07-29T14:45:15;0.70;;;0.40;;
50858;SDS011;36826;47.514;19.056;2023-07-29T14:47:41;1.08;;;0.50;;
50858;SDS011;36826;47.514;19.056;2023-07-29T14:50:07;1.45;;;0.65;;
50858;SDS011;36826;47.514;19.056;2023-07-29T14:52:32;1.75;;;0.55;;
50858;SDS011;36826;47.514;19.056;2023-07-29T14:54:58;1.30;;;0.82;;
50858;SDS011;36826;47.514;19.056;2023-07-29T14:57:23;1.35;;;0.70;;
50858;SDS011;36826;47.514;19.056;2023-07-29T14:59:49;1.15;;;0.90;;
50858;SDS011;36826;47.514;19.056;2023-07-29T15:02:15;1.58;;;0.60;;
50858;SDS011;36826;47.514;19.056;2023-07-29T15:04:40;1.38;;;0.75;;
50858;SDS011;36826;47.514;19.056;2023-07-29T15:07:06;2.40;;;0.75;;
50858;SDS011;36826;47.514;19.056;2023-07-29T15:09:31;2.55;;;0.80;;
50858;SDS011;36826;47.514;19.056;2023-07-29T15:11:57;1.30;;;0.60;;
50858;SDS011;36826;47.514;19.056;2023-07-29T15:14:24;1.97;;;0.93;;
50858;SDS011;36826;47.514;19.056;2023-07-29T15:16:49;1.20;;;0.75;;
50858;SDS011;36826;47.514;19.056;2023-07-29T15:19:15;1.00;;;0.60;;
50858;SDS011;36826;47.514;19.056;2023-07-29T15:21:40;1.20;;;0.68;;
50858;SDS011;36826;47.514;19.056;2023-07-29T15:24:06;1.23;;;0.50;;
50858;SDS011;36826;47.514;19.056;2023-07-29T15:26:32;2.13;;;0.85;;
50858;SDS011;36826;47.514;19.056;2023-07-29T15:28:58;1.85;;;0.70;;
50858;SDS011;36826;47.514;19.056;2023-07-29T15:31:25;2.20;;;0.40;;